sensor_id;sensor_type;location;lat;lon;timestamp;P1;durP1;ratioP1;P2;durP2;ratioP2
29200;SDS011;16244;51.956;12.980;2023-03-01T00:01:08;5.77;;;5.20;;
29200;SDS011;16244;51.956;12.980;2023-03-01T00:03:37;5.57;;;4.37;;
29200;SDS011;16244;51.956;12.980;2023-03-01T00:06:05;7.47;;;4.20;;
29200;SDS011;16244;51.956;12.980;2023-03-01T00:08:34;4.90;;;4.50;;
29200;SDS011;16244;51.956;12.980;2023-03-01T00:11:03;6.50;;;4.87;;
29200;SDS011;16244;51.956;12.980;2023-03-01T00:13:31;3.93;;;3.67;;
29200;SDS011;16244;51.956;12.980;2023-03-01T00:16:01;3.97;;;3.60;;
29200;SDS011;16244;51.956;12.980;2023-03-01T00:18:29;4.63;;;3.80;;
29200;SDS011;16244;51.956;12.980;2023-03-01T00:20:56;6.70;;;4.83;;
29200;SDS011;16244;51.956;12.980;2023-03-01T00:23:24;4.40;;;4.00;;
29200;SDS011;16244;51.956;12.980;2023-03-01T00:25:53;3.37;;;3.17;;
29200;SDS011;16244;51.956;12.980;2023-03-01T00:28:21;4.40;;;4.10;;
29200;SDS011;16244;51.956;12.980;2023-03-01T00:30:49;4.60;;;4.10;;
29200;SDS011;16244;51.956;12.980;2023-03-01T00:33:16;4.50;;;4.10;;
29200;SDS011;16244;51.956;12.980;2023-03-01T00:35:44;3.83;;;3.53;;
29200;SDS011;16244;51.956;12.980;2023-03-01T00:38:12;4.20;;;3.80;;
29200;SDS011;16244;51.956;12.980;2023-03-01T00:40:39;3.73;;;3.47;;
29200;SDS011;16244;51.956;12.980;2023-03-01T00:43:08;4.57;;;3.90;;
29200;SDS011;16244;51.956;12.980;2023-03-01T00:45:36;4.97;;;3.93;;
29200;SDS011;16244;51.956;12.980;2023-03-01T00:48:03;4.03;;;3.70;;
29200;SDS011;16244;51.956;12.980;2023-03-01T00:50:31;3.10;;;2.90;;
29200;SDS011;16244;51.956;12.980;2023-03-01T00:52:59;4.70;;;4.20;;
29200;SDS011;16244;51.956;12.980;2023-03-01T00:55:26;4.80;;;4.30;;
29200;SDS011;16244;51.956;12.980;2023-03-01T00:57:54;4.20;;;3.80;;
29200;SDS011;16244;51.956;12.980;2023-03-01T01:00:23;3.83;;;3.53;;
29200;SDS011;16244;51.956;12.980;2023-03-01T01:02:53;3.33;;;3.17;;
29200;SDS011;16244;51.956;12.980;2023-03-01T01:05:21;8.03;;;4.00;;
29200;SDS011;16244;51.956;12.980;2023-03-01T01:07:48;5.67;;;4.27;;
29200;SDS011;16244;51.956;12.980;2023-03-01T01:10:16;8.60;;;3.80;;
29200;SDS011;16244;51.956;12.980;2023-03-01T01:12:46;3.83;;;3.63;;
29200;SDS011;16244;51.956;12.980;2023-03-01T01:15:14;4.90;;;4.13;;
29200;SDS011;16244;51.956;12.980;2023-03-01T01:17:43;3.93;;;3.57;;
29200;SDS011;16244;51.956;12.980;2023-03-01T01:20:11;3.10;;;2.90;;
29200;SDS011;16244;51.956;12.980;2023-03-01T01:22:39;6.03;;;3.53;;
29200;SDS011;16244;51.956;12.980;2023-03-01T01:25:06;5.00;;;4.20;;
29200;SDS011;16244;51.956;12.980;2023-03-01T01:27:35;3.57;;;3.13;;
29200;SDS011;16244;51.956;12.980;2023-03-01T01:30:02;3.67;;;3.37;;
29200;SDS011;16244;51.956;12.980;2023-03-01T01:32:31;7.30;;;3.70;;
29200;SDS011;16244;51.956;12.980;2023-03-01T01:34:59;3.80;;;3.47;;
29200;SDS011;16244;51.956;12.980;2023-03-01T01:37:27;4.40;;;4.13;;
29200;SDS011;16244;51.956;12.980;2023-03-01T01:39:57;9.43;;;3.50;;
29200;SDS011;16244;51.956;12.980;2023-03-01T01:42:26;4.47;;;4.13;;
29200;SDS011;16244;51.956;12.980;2023-03-01T01:47:54;4.20;;;3.80;;
29200;SDS011;16244;51.956;12.980;2023-03-01T01:50:25;3.63;;;3.33;;
29200;SDS011;16244;51.956;12.980;2023-03-01T01:53:08;3.63;;;3.37;;
29200;SDS011;16244;51.956;12.980;2023-03-01T01:55:39;3.33;;;3.17;;
29200;SDS011;16244;51.956;12.980;2023-03-01T01:58:09;3.60;;;3.30;;
29200;SDS011;16244;51.956;12.980;2023-03-01T02:00:40;4.13;;;3.80;;
29200;SDS011;16244;51.956;12.980;2023-03-01T02:03:08;3.57;;;3.37;;
29200;SDS011;16244;51.956;12.980;2023-03-01T02:05:40;4.30;;;3.53;;
29200;SDS011;16244;51.956;12.980;2023-03-01T02:08:14;3.90;;;3.70;;
29200;SDS011;16244;51.956;12.980;2023-03-01T02:10:45;4.17;;;3.60;;
29200;SDS011;16244;51.956;12.980;2023-03-01T02:13:14;3.47;;;3.20;;
29200;SDS011;16244;51.956;12.980;2023-03-01T02:15:42;4.47;;;3.53;;
29200;SDS011;16244;51.956;12.980;2023-03-01T02:18:11;4.37;;;4.07;;
29200;SDS011;16244;51.956;12.980;2023-03-01T02:20:46;8.30;;;3.80;;
29200;SDS011;16244;51.956;12.980;2023-03-01T02:23:19;3.23;;;3.03;;
29200;SDS011;16244;51.956;12.980;2023-03-01T02:25:49;5.47;;;4.13;;
29200;SDS011;16244;51.956;12.980;2023-03-01T02:28:23;4.13;;;3.20;;
29200;SDS011;16244;51.956;12.980;2023-03-01T02:30:52;6.07;;;4.30;;
29200;SDS011;16244;51.956;12.980;2023-03-01T02:33:38;5.13;;;3.83;;
29200;SDS011;16244;51.956;12.980;2023-03-01T02:36:08;4.03;;;3.67;;
29200;SDS011;16244;51.956;12.980;2023-03-01T02:38:39;3.37;;;3.07;;
29200;SDS011;16244;51.956;12.980;2023-03-01T02:41:07;6.00;;;3.40;;
29200;SDS011;16244;51.956;12.980;2023-03-01T02:43:39;4.33;;;3.93;;
29200;SDS011;16244;51.956;12.980;2023-03-01T02:46:08;3.23;;;2.97;;
29200;SDS011;16244;51.956;12.980;2023-03-01T02:48:42;6.33;;;3.73;;
29200;SDS011;16244;51.956;12.980;2023-03-01T02:51:17;4.13;;;3.83;;
29200;SDS011;16244;51.956;12.980;2023-03-01T02:53:55;3.57;;;3.23;;
29200;SDS011;16244;51.956;12.980;2023-03-01T02:56:32;3.10;;;3.00;;
29200;SDS011;16244;51.956;12.980;2023-03-01T02:59:02;3.50;;;3.30;;
29200;SDS011;16244;51.956;12.980;2023-03-01T03:01:30;3.27;;;3.07;;
29200;SDS011;16244;51.956;12.980;2023-03-01T03:04:03;3.03;;;2.90;;
29200;SDS011;16244;51.956;12.980;2023-03-01T03:06:32;3.13;;;3.03;;
29200;SDS011;16244;51.956;12.980;2023-03-01T03:08:59;3.40;;;3.20;;
29200;SDS011;16244;51.956;12.980;2023-03-01T03:11:27;3.80;;;3.50;;
29200;SDS011;16244;51.956;12.980;2023-03-01T03:13:56;4.50;;;3.90;;
29200;SDS011;16244;51.956;12.980;2023-03-01T03:16:25;4.20;;;3.80;;
29200;SDS011;16244;51.956;12.980;2023-03-01T03:18:52;5.17;;;3.53;;
29200;SDS011;16244;51.956;12.980;2023-03-01T03:21:20;4.20;;;3.90;;
29200;SDS011;16244;51.956;12.980;2023-03-01T03:23:47;4.93;;;4.13;;
29200;SDS011;16244;51.956;12.980;2023-03-01T03:26:15;7.23;;;3.47;;
29200;SDS011;16244;51.956;12.980;2023-03-01T03:28:42;3.60;;;3.30;;
29200;SDS011;16244;51.956;12.980;2023-03-01T03:31:10;4.00;;;3.03;;
29200;SDS011;16244;51.956;12.980;2023-03-01T03:33:38;4.47;;;4.03;;
29200;SDS011;16244;51.956;12.980;2023-03-01T03:36:06;4.00;;;3.63;;
29200;SDS011;16244;51.956;12.980;2023-03-01T03:38:38;7.07;;;4.27;;
29200;SDS011;16244;51.956;12.980;2023-03-01T03:41:07;9.87;;;4.97;;
29200;SDS011;16244;51.956;12.980;2023-03-01T03:43:35;6.03;;;3.47;;
29200;SDS011;16244;51.956;12.980;2023-03-01T03:46:04;4.63;;;4.30;;
29200;SDS011;16244;51.956;12.980;2023-03-01T03:48:32;3.27;;;3.10;;
29200;SDS011;16244;51.956;12.980;2023-03-01T03:51:02;4.00;;;3.70;;
29200;SDS011;16244;51.956;12.980;2023-03-01T03:53:31;4.33;;;4.10;;
29200;SDS011;16244;51.956;12.980;2023-03-01T03:55:59;5.00;;;4.20;;
29200;SDS011;16244;51.956;12.980;2023-03-01T03:58:26;5.67;;;3.70;;
29200;SDS011;16244;51.956;12.980;2023-03-01T04:00:54;4.87;;;4.47;;
29200;SDS011;16244;51.956;12.980;2023-03-01T04:03:23;3.40;;;3.30;;
29200;SDS011;16244;51.956;12.980;2023-03-01T04:05:52;8.33;;;4.63;;
29200;SDS011;16244;51.956;12.980;2023-03-01T04:08:22;4.43;;;4.10;;
29200;SDS011;16244;51.956;12.980;2023-03-01T04:10:51;4.23;;;3.87;;
29200;SDS011;16244;51.956;12.980;2023-03-01T04:13:20;3.33;;;3.23;;
29200;SDS011;16244;51.956;12.980;2023-03-01T04:15:48;4.37;;;3.97;;
29200;SDS011;16244;51.956;12.980;2023-03-01T04:18:16;3.77;;;3.47;;
29200;SDS011;16244;51.956;12.980;2023-03-01T04:20:45;8.03;;;4.70;;
29200;SDS011;16244;51.956;12.980;2023-03-01T04:23:14;4.27;;;3.87;;
29200;SDS011;16244;51.956;12.980;2023-03-01T04:25:47;4.07;;;3.67;;
29200;SDS011;16244;51.956;12.980;2023-03-01T04:28:21;5.17;;;4.10;;
29200;SDS011;16244;51.956;12.980;2023-03-01T04:30:50;4.43;;;4.13;;
29200;SDS011;16244;51.956;12.980;2023-03-01T04:33:18;8.17;;;4.60;;
29200;SDS011;16244;51.956;12.980;2023-03-01T04:35:46;5.10;;;4.67;;
29200;SDS011;16244;51.956;12.980;2023-03-01T04:38:15;3.83;;;3.60;;
29200;SDS011;16244;51.956;12.980;2023-03-01T04:40:43;4.23;;;3.93;;
29200;SDS011;16244;51.956;12.980;2023-03-01T04:43:12;5.67;;;4.57;;
29200;SDS011;16244;51.956;12.980;2023-03-01T04:45:41;7.97;;;4.40;;
29200;SDS011;16244;51.956;12.980;2023-03-01T04:48:08;5.20;;;4.80;;
29200;SDS011;16244;51.956;12.980;2023-03-01T04:50:36;8.43;;;4.57;;
29200;SDS011;16244;51.956;12.980;2023-03-01T04:53:03;6.83;;;4.50;;
29200;SDS011;16244;51.956;12.980;2023-03-01T04:55:31;5.63;;;5.10;;
29200;SDS011;16244;51.956;12.980;2023-03-01T04:57:58;7.60;;;4.83;;
29200;SDS011;16244;51.956;12.980;2023-03-01T05:00:27;8.13;;;6.30;;
29200;SDS011;16244;51.956;12.980;2023-03-01T05:02:55;7.13;;;5.23;;
29200;SDS011;16244;51.956;12.980;2023-03-01T05:05:25;8.73;;;5.07;;
29200;SDS011;16244;51.956;12.980;2023-03-01T05:07:54;7.93;;;6.20;;
29200;SDS011;16244;51.956;12.980;2023-03-01T05:10:23;6.83;;;4.47;;
29200;SDS011;16244;51.956;12.980;2023-03-01T05:12:51;10.43;;;5.00;;
29200;SDS011;16244;51.956;12.980;2023-03-01T05:15:19;8.73;;;5.20;;
29200;SDS011;16244;51.956;12.980;2023-03-01T05:17:52;5.63;;;4.80;;
29200;SDS011;16244;51.956;12.980;2023-03-01T05:20:21;6.20;;;4.70;;
29200;SDS011;16244;51.956;12.980;2023-03-01T05:22:49;9.73;;;4.60;;
29200;SDS011;16244;51.956;12.980;2023-03-01T05:25:17;5.83;;;5.03;;
29200;SDS011;16244;51.956;12.980;2023-03-01T05:27:47;4.87;;;4.47;;
29200;SDS011;16244;51.956;12.980;2023-03-01T05:30:15;4.70;;;4.40;;
29200;SDS011;16244;51.956;12.980;2023-03-01T05:32:44;5.23;;;4.47;;
29200;SDS011;16244;51.956;12.980;2023-03-01T05:35:15;6.00;;;5.50;;
29200;SDS011;16244;51.956;12.980;2023-03-01T05:37:44;5.97;;;5.33;;
29200;SDS011;16244;51.956;12.980;2023-03-01T05:40:14;8.13;;;6.00;;
29200;SDS011;16244;51.956;12.980;2023-03-01T05:42:44;6.50;;;5.50;;
29200;SDS011;16244;51.956;12.980;2023-03-01T05:45:12;7.53;;;5.93;;
29200;SDS011;16244;51.956;12.980;2023-03-01T05:47:40;8.70;;;5.40;;
29200;SDS011;16244;51.956;12.980;2023-03-01T05:50:11;10.33;;;6.97;;
29200;SDS011;16244;51.956;12.980;2023-03-01T05:52:40;9.73;;;7.07;;
29200;SDS011;16244;51.956;12.980;2023-03-01T05:55:08;12.40;;;8.13;;
29200;SDS011;16244;51.956;12.980;2023-03-01T05:57:36;11.97;;;7.50;;
29200;SDS011;16244;51.956;12.980;2023-03-01T06:00:04;7.87;;;6.13;;
29200;SDS011;16244;51.956;12.980;2023-03-01T06:02:32;8.10;;;6.70;;
29200;SDS011;16244;51.956;12.980;2023-03-01T06:05:00;9.53;;;7.20;;
29200;SDS011;16244;51.956;12.980;2023-03-01T06:07:28;10.47;;;7.07;;
29200;SDS011;16244;51.956;12.980;2023-03-01T06:09:57;9.40;;;6.80;;
29200;SDS011;16244;51.956;12.980;2023-03-01T06:12:24;17.53;;;7.47;;
29200;SDS011;16244;51.956;12.980;2023-03-01T06:14:52;13.60;;;7.30;;
29200;SDS011;16244;51.956;12.980;2023-03-01T06:17:19;9.40;;;6.83;;
29200;SDS011;16244;51.956;12.980;2023-03-01T06:19:47;17.53;;;9.97;;
29200;SDS011;16244;51.956;12.980;2023-03-01T06:22:14;11.33;;;6.70;;
29200;SDS011;16244;51.956;12.980;2023-03-01T06:24:41;12.93;;;6.87;;
29200;SDS011;16244;51.956;12.980;2023-03-01T06:27:10;17.53;;;7.70;;
29200;SDS011;16244;51.956;12.980;2023-03-01T06:29:38;9.33;;;5.80;;
29200;SDS011;16244;51.956;12.980;2023-03-01T06:32:05;12.53;;;7.30;;
29200;SDS011;16244;51.956;12.980;2023-03-01T06:34:33;9.27;;;5.83;;
29200;SDS011;16244;51.956;12.980;2023-03-01T06:37:01;10.30;;;7.23;;
29200;SDS011;16244;51.956;12.980;2023-03-01T06:39:30;6.73;;;6.10;;
29200;SDS011;16244;51.956;12.980;2023-03-01T06:41:58;10.33;;;6.63;;
29200;SDS011;16244;51.956;12.980;2023-03-01T06:44:27;9.20;;;7.53;;
29200;SDS011;16244;51.956;12.980;2023-03-01T06:46:55;13.03;;;6.53;;
29200;SDS011;16244;51.956;12.980;2023-03-01T06:49:23;10.47;;;6.90;;
29200;SDS011;16244;51.956;12.980;2023-03-01T06:51:50;10.60;;;7.47;;
29200;SDS011;16244;51.956;12.980;2023-03-01T06:54:18;8.30;;;6.70;;
29200;SDS011;16244;51.956;12.980;2023-03-01T06:56:47;8.47;;;6.17;;
29200;SDS011;16244;51.956;12.980;2023-03-01T06:59:16;8.27;;;6.03;;
29200;SDS011;16244;51.956;12.980;2023-03-01T07:01:47;6.33;;;5.50;;
29200;SDS011;16244;51.956;12.980;2023-03-01T07:04:14;6.97;;;6.30;;
29200;SDS011;16244;51.956;12.980;2023-03-01T07:06:41;12.07;;;7.23;;
29200;SDS011;16244;51.956;12.980;2023-03-01T07:09:09;6.83;;;6.23;;
29200;SDS011;16244;51.956;12.980;2023-03-01T07:11:37;13.60;;;6.30;;
29200;SDS011;16244;51.956;12.980;2023-03-01T07:14:05;7.00;;;6.30;;
29200;SDS011;16244;51.956;12.980;2023-03-01T07:16:32;7.70;;;5.90;;
29200;SDS011;16244;51.956;12.980;2023-03-01T07:19:01;9.93;;;6.47;;
29200;SDS011;16244;51.956;12.980;2023-03-01T07:21:28;8.27;;;7.40;;
29200;SDS011;16244;51.956;12.980;2023-03-01T07:23:56;7.67;;;6.93;;
29200;SDS011;16244;51.956;12.980;2023-03-01T07:26:23;14.67;;;7.43;;
29200;SDS011;16244;51.956;12.980;2023-03-01T07:28:51;10.40;;;8.30;;
29200;SDS011;16244;51.956;12.980;2023-03-01T07:31:18;60.03;;;30.43;;
29200;SDS011;16244;51.956;12.980;2023-03-01T07:33:46;54.43;;;24.20;;
29200;SDS011;16244;51.956;12.980;2023-03-01T07:36:14;18.60;;;11.20;;
29200;SDS011;16244;51.956;12.980;2023-03-01T07:38:42;19.57;;;12.03;;
29200;SDS011;16244;51.956;12.980;2023-03-01T07:41:09;13.40;;;9.43;;
29200;SDS011;16244;51.956;12.980;2023-03-01T07:43:37;10.80;;;8.67;;
29200;SDS011;16244;51.956;12.980;2023-03-01T07:46:04;15.47;;;10.00;;
29200;SDS011;16244;51.956;12.980;2023-03-01T07:48:32;16.13;;;9.67;;
29200;SDS011;16244;51.956;12.980;2023-03-01T07:51:00;12.17;;;7.80;;
29200;SDS011;16244;51.956;12.980;2023-03-01T07:53:29;15.23;;;8.27;;
29200;SDS011;16244;51.956;12.980;2023-03-01T07:56:01;7.43;;;6.33;;
29200;SDS011;16244;51.956;12.980;2023-03-01T07:58:29;8.87;;;7.20;;
29200;SDS011;16244;51.956;12.980;2023-03-01T08:01:00;20.50;;;11.23;;
29200;SDS011;16244;51.956;12.980;2023-03-01T08:03:28;11.27;;;7.93;;
29200;SDS011;16244;51.956;12.980;2023-03-01T08:05:56;42.07;;;24.80;;
29200;SDS011;16244;51.956;12.980;2023-03-01T08:08:25;10.77;;;6.10;;
29200;SDS011;16244;51.956;12.980;2023-03-01T08:10:57;11.13;;;7.60;;
29200;SDS011;16244;51.956;12.980;2023-03-01T08:13:25;16.30;;;8.13;;
29200;SDS011;16244;51.956;12.980;2023-03-01T08:15:53;7.80;;;6.67;;
29200;SDS011;16244;51.956;12.980;2023-03-01T08:18:20;17.30;;;8.57;;
29200;SDS011;16244;51.956;12.980;2023-03-01T08:20:48;12.30;;;9.90;;
29200;SDS011;16244;51.956;12.980;2023-03-01T08:23:15;14.57;;;10.93;;
29200;SDS011;16244;51.956;12.980;2023-03-01T08:25:43;14.40;;;9.10;;
29200;SDS011;16244;51.956;12.980;2023-03-01T08:28:12;12.13;;;8.83;;
29200;SDS011;16244;51.956;12.980;2023-03-01T08:30:39;9.97;;;8.13;;
29200;SDS011;16244;51.956;12.980;2023-03-01T08:33:06;13.50;;;8.37;;
29200;SDS011;16244;51.956;12.980;2023-03-01T08:35:34;12.07;;;8.30;;
29200;SDS011;16244;51.956;12.980;2023-03-01T08:38:01;15.10;;;9.00;;
29200;SDS011;16244;51.956;12.980;2023-03-01T08:40:29;11.13;;;8.03;;
29200;SDS011;16244;51.956;12.980;2023-03-01T08:42:58;12.67;;;7.80;;
29200;SDS011;16244;51.956;12.980;2023-03-01T08:45:26;22.83;;;9.30;;
29200;SDS011;16244;51.956;12.980;2023-03-01T08:47:54;13.50;;;10.20;;
29200;SDS011;16244;51.956;12.980;2023-03-01T08:50:21;12.20;;;8.40;;
29200;SDS011;16244;51.956;12.980;2023-03-01T08:52:50;10.53;;;8.30;;
29200;SDS011;16244;51.956;12.980;2023-03-01T08:55:17;11.73;;;9.23;;
29200;SDS011;16244;51.956;12.980;2023-03-01T08:57:45;13.90;;;7.80;;
29200;SDS011;16244;51.956;12.980;2023-03-01T09:00:12;9.63;;;7.80;;
29200;SDS011;16244;51.956;12.980;2023-03-01T09:02:42;14.33;;;8.10;;
29200;SDS011;16244;51.956;12.980;2023-03-01T09:05:10;12.43;;;8.60;;
29200;SDS011;16244;51.956;12.980;2023-03-01T09:07:37;11.83;;;8.23;;
29200;SDS011;16244;51.956;12.980;2023-03-01T09:10:05;12.43;;;8.20;;
29200;SDS011;16244;51.956;12.980;2023-03-01T09:12:34;10.77;;;8.10;;
29200;SDS011;16244;51.956;12.980;2023-03-01T09:15:01;11.20;;;8.37;;
29200;SDS011;16244;51.956;12.980;2023-03-01T09:17:29;11.77;;;8.10;;
29200;SDS011;16244;51.956;12.980;2023-03-01T09:19:58;9.87;;;8.33;;
29200;SDS011;16244;51.956;12.980;2023-03-01T09:22:26;11.87;;;8.23;;
29200;SDS011;16244;51.956;12.980;2023-03-01T09:24:53;11.87;;;9.63;;
29200;SDS011;16244;51.956;12.980;2023-03-01T09:27:22;9.30;;;8.07;;
29200;SDS011;16244;51.956;12.980;2023-03-01T09:29:50;9.20;;;8.00;;
29200;SDS011;16244;51.956;12.980;2023-03-01T09:32:18;10.00;;;7.30;;
29200;SDS011;16244;51.956;12.980;2023-03-01T09:34:45;8.80;;;7.00;;
29200;SDS011;16244;51.956;12.980;2023-03-01T09:37:32;8.53;;;6.70;;
29200;SDS011;16244;51.956;12.980;2023-03-01T09:40:00;8.50;;;5.73;;
29200;SDS011;16244;51.956;12.980;2023-03-01T09:42:29;8.43;;;4.80;;
29200;SDS011;16244;51.956;12.980;2023-03-01T09:44:59;9.50;;;5.80;;
29200;SDS011;16244;51.956;12.980;2023-03-01T09:47:31;11.77;;;6.10;;
29200;SDS011;16244;51.956;12.980;2023-03-01T09:50:02;8.00;;;6.07;;
29200;SDS011;16244;51.956;12.980;2023-03-01T09:52:36;27.70;;;15.00;;
29200;SDS011;16244;51.956;12.980;2023-03-01T09:55:08;12.83;;;8.53;;
29200;SDS011;16244;51.956;12.980;2023-03-01T09:57:41;7.03;;;5.70;;
29200;SDS011;16244;51.956;12.980;2023-03-01T10:00:16;6.77;;;6.07;;
29200;SDS011;16244;51.956;12.980;2023-03-01T10:02:51;10.70;;;6.00;;
29200;SDS011;16244;51.956;12.980;2023-03-01T10:05:29;7.10;;;5.00;;
29200;SDS011;16244;51.956;12.980;2023-03-01T10:08:19;6.60;;;5.00;;
29200;SDS011;16244;51.956;12.980;2023-03-01T10:10:55;11.07;;;5.00;;
29200;SDS011;16244;51.956;12.980;2023-03-01T10:13:23;7.33;;;6.00;;
29200;SDS011;16244;51.956;12.980;2023-03-01T10:15:55;10.10;;;4.90;;
29200;SDS011;16244;51.956;12.980;2023-03-01T10:18:25;5.47;;;4.70;;
29200;SDS011;16244;51.956;12.980;2023-03-01T10:20:55;8.53;;;5.10;;
29200;SDS011;16244;51.956;12.980;2023-03-01T10:23:27;7.37;;;5.33;;
29200;SDS011;16244;51.956;12.980;2023-03-01T10:26:07;7.93;;;4.40;;
29200;SDS011;16244;51.956;12.980;2023-03-01T10:28:46;12.20;;;5.50;;
29200;SDS011;16244;51.956;12.980;2023-03-01T10:31:19;6.23;;;5.27;;
29200;SDS011;16244;51.956;12.980;2023-03-01T10:33:53;6.87;;;4.93;;
29200;SDS011;16244;51.956;12.980;2023-03-01T10:36:23;9.73;;;5.73;;
29200;SDS011;16244;51.956;12.980;2023-03-01T10:38:52;6.10;;;4.93;;
29200;SDS011;16244;51.956;12.980;2023-03-01T10:41:22;7.37;;;5.03;;
29200;SDS011;16244;51.956;12.980;2023-03-01T10:43:52;7.07;;;5.00;;
29200;SDS011;16244;51.956;12.980;2023-03-01T10:46:22;5.90;;;4.77;;
29200;SDS011;16244;51.956;12.980;2023-03-01T10:49:07;4.87;;;4.37;;
29200;SDS011;16244;51.956;12.980;2023-03-01T10:51:40;6.03;;;3.40;;
29200;SDS011;16244;51.956;12.980;2023-03-01T10:54:16;3.47;;;3.20;;
29200;SDS011;16244;51.956;12.980;2023-03-01T10:56:46;4.63;;;3.00;;
29200;SDS011;16244;51.956;12.980;2023-03-01T10:59:21;4.27;;;3.87;;
29200;SDS011;16244;51.956;12.980;2023-03-01T11:02:03;4.10;;;3.17;;
29200;SDS011;16244;51.956;12.980;2023-03-01T11:04:47;10.27;;;5.17;;
29200;SDS011;16244;51.956;12.980;2023-03-01T11:07:23;7.53;;;3.20;;
29200;SDS011;16244;51.956;12.980;2023-03-01T11:09:52;5.57;;;3.30;;
29200;SDS011;16244;51.956;12.980;2023-03-01T11:12:20;11.50;;;6.60;;
29200;SDS011;16244;51.956;12.980;2023-03-01T11:14:48;15.23;;;3.80;;
29200;SDS011;16244;51.956;12.980;2023-03-01T11:17:21;5.33;;;2.90;;
29200;SDS011;16244;51.956;12.980;2023-03-01T11:20:03;3.27;;;2.97;;
29200;SDS011;16244;51.956;12.980;2023-03-01T11:22:52;3.60;;;3.30;;
29200;SDS011;16244;51.956;12.980;2023-03-01T11:25:25;3.70;;;3.40;;
29200;SDS011;16244;51.956;12.980;2023-03-01T11:27:53;6.13;;;4.40;;
29200;SDS011;16244;51.956;12.980;2023-03-01T11:30:24;4.47;;;4.10;;
29200;SDS011;16244;51.956;12.980;2023-03-01T11:33:01;4.10;;;3.70;;
29200;SDS011;16244;51.956;12.980;2023-03-01T11:35:35;3.63;;;3.33;;
29200;SDS011;16244;51.956;12.980;2023-03-01T11:38:15;5.23;;;3.30;;
29200;SDS011;16244;51.956;12.980;2023-03-01T11:40:49;3.37;;;3.17;;
29200;SDS011;16244;51.956;12.980;2023-03-01T11:43:28;3.87;;;3.30;;
29200;SDS011;16244;51.956;12.980;2023-03-01T11:46:13;4.37;;;3.60;;
29200;SDS011;16244;51.956;12.980;2023-03-01T11:49:08;3.60;;;2.90;;
29200;SDS011;16244;51.956;12.980;2023-03-01T11:51:48;3.70;;;3.40;;
29200;SDS011;16244;51.956;12.980;2023-03-01T11:54:27;3.10;;;2.90;;
29200;SDS011;16244;51.956;12.980;2023-03-01T11:57:08;4.13;;;3.70;;
29200;SDS011;16244;51.956;12.980;2023-03-01T11:59:45;3.27;;;2.97;;
29200;SDS011;16244;51.956;12.980;2023-03-01T12:05:46;3.20;;;3.00;;
29200;SDS011;16244;51.956;12.980;2023-03-01T12:08:24;4.20;;;3.23;;
29200;SDS011;16244;51.956;12.980;2023-03-01T12:11:01;4.57;;;3.80;;
29200;SDS011;16244;51.956;12.980;2023-03-01T12:16:40;3.40;;;3.10;;
29200;SDS011;16244;51.956;12.980;2023-03-01T12:19:27;3.93;;;3.40;;
29200;SDS011;16244;51.956;12.980;2023-03-01T12:25:08;2.77;;;2.57;;
29200;SDS011;16244;51.956;12.980;2023-03-01T12:27:47;3.43;;;2.60;;
29200;SDS011;16244;51.956;12.980;2023-03-01T12:30:30;3.00;;;2.73;;
29200;SDS011;16244;51.956;12.980;2023-03-01T12:33:14;2.73;;;2.53;;
29200;SDS011;16244;51.956;12.980;2023-03-01T12:36:04;4.07;;;3.10;;
29200;SDS011;16244;51.956;12.980;2023-03-01T12:38:45;4.57;;;3.53;;
29200;SDS011;16244;51.956;12.980;2023-03-01T12:41:21;7.80;;;3.67;;
29200;SDS011;16244;51.956;12.980;2023-03-01T12:44:11;2.83;;;2.73;;
29200;SDS011;16244;51.956;12.980;2023-03-01T12:46:55;2.70;;;2.50;;
29200;SDS011;16244;51.956;12.980;2023-03-01T12:49:34;3.10;;;2.90;;
29200;SDS011;16244;51.956;12.980;2023-03-01T12:52:09;3.70;;;2.67;;
29200;SDS011;16244;51.956;12.980;2023-03-01T12:54:40;4.50;;;3.40;;
29200;SDS011;16244;51.956;12.980;2023-03-01T12:57:10;3.60;;;2.27;;
29200;SDS011;16244;51.956;12.980;2023-03-01T12:59:42;2.30;;;2.00;;
29200;SDS011;16244;51.956;12.980;2023-03-01T13:02:21;2.43;;;2.00;;
29200;SDS011;16244;51.956;12.980;2023-03-01T13:04:55;3.37;;;2.37;;
29200;SDS011;16244;51.956;12.980;2023-03-01T13:07:43;2.23;;;1.93;;
29200;SDS011;16244;51.956;12.980;2023-03-01T13:10:17;2.23;;;2.07;;
29200;SDS011;16244;51.956;12.980;2023-03-01T13:12:51;2.80;;;2.10;;
29200;SDS011;16244;51.956;12.980;2023-03-01T13:15:31;2.20;;;2.07;;
29200;SDS011;16244;51.956;12.980;2023-03-01T13:18:02;3.10;;;2.87;;
29200;SDS011;16244;51.956;12.980;2023-03-01T13:20:33;2.37;;;2.20;;
29200;SDS011;16244;51.956;12.980;2023-03-01T13:23:12;2.93;;;2.40;;
29200;SDS011;16244;51.956;12.980;2023-03-01T13:26:01;5.13;;;2.50;;
29200;SDS011;16244;51.956;12.980;2023-03-01T13:28:47;2.83;;;1.40;;
29200;SDS011;16244;51.956;12.980;2023-03-01T13:34:41;2.10;;;2.00;;
29200;SDS011;16244;51.956;12.980;2023-03-01T13:37:17;1.50;;;1.40;;
29200;SDS011;16244;51.956;12.980;2023-03-01T13:39:46;2.80;;;1.80;;
29200;SDS011;16244;51.956;12.980;2023-03-01T13:42:33;1.83;;;1.70;;
29200;SDS011;16244;51.956;12.980;2023-03-01T13:45:05;1.87;;;1.70;;
29200;SDS011;16244;51.956;12.980;2023-03-01T13:47:44;4.83;;;1.70;;
29200;SDS011;16244;51.956;12.980;2023-03-01T13:50:19;2.60;;;1.73;;
29200;SDS011;16244;51.956;12.980;2023-03-01T13:52:52;4.60;;;1.70;;
29200;SDS011;16244;51.956;12.980;2023-03-01T13:55:24;2.00;;;1.67;;
29200;SDS011;16244;51.956;12.980;2023-03-01T13:57:56;1.70;;;1.60;;
29200;SDS011;16244;51.956;12.980;2023-03-01T14:00:35;3.73;;;2.20;;
29200;SDS011;16244;51.956;12.980;2023-03-01T14:03:14;3.10;;;1.57;;
29200;SDS011;16244;51.956;12.980;2023-03-01T14:05:56;1.87;;;1.77;;
29200;SDS011;16244;51.956;12.980;2023-03-01T14:08:28;3.60;;;2.90;;
29200;SDS011;16244;51.956;12.980;2023-03-01T14:11:13;2.13;;;1.93;;
29200;SDS011;16244;51.956;12.980;2023-03-01T14:14:00;2.63;;;2.43;;
29200;SDS011;16244;51.956;12.980;2023-03-01T14:16:54;3.43;;;1.97;;
29200;SDS011;16244;51.956;12.980;2023-03-01T14:19:32;1.87;;;1.77;;
29200;SDS011;16244;51.956;12.980;2023-03-01T14:22:04;2.60;;;2.00;;
29200;SDS011;16244;51.956;12.980;2023-03-01T14:24:39;2.13;;;1.83;;
29200;SDS011;16244;51.956;12.980;2023-03-01T14:27:18;1.87;;;1.77;;
29200;SDS011;16244;51.956;12.980;2023-03-01T14:29:53;2.10;;;2.00;;
29200;SDS011;16244;51.956;12.980;2023-03-01T14:32:23;2.70;;;2.00;;
29200;SDS011;16244;51.956;12.980;2023-03-01T14:34:52;3.63;;;1.90;;
29200;SDS011;16244;51.956;12.980;2023-03-01T14:37:23;2.20;;;1.87;;
29200;SDS011;16244;51.956;12.980;2023-03-01T14:39:52;2.90;;;2.63;;
29200;SDS011;16244;51.956;12.980;2023-03-01T14:42:21;2.70;;;2.40;;
29200;SDS011;16244;51.956;12.980;2023-03-01T14:44:51;2.67;;;2.47;;
29200;SDS011;16244;51.956;12.980;2023-03-01T14:47:23;2.10;;;2.00;;
29200;SDS011;16244;51.956;12.980;2023-03-01T14:49:56;2.80;;;2.70;;
29200;SDS011;16244;51.956;12.980;2023-03-01T14:52:30;2.00;;;1.90;;
29200;SDS011;16244;51.956;12.980;2023-03-01T14:55:02;2.07;;;1.87;;
29200;SDS011;16244;51.956;12.980;2023-03-01T14:57:32;2.70;;;2.50;;
29200;SDS011;16244;51.956;12.980;2023-03-01T15:00:00;2.10;;;1.97;;
29200;SDS011;16244;51.956;12.980;2023-03-01T15:02:31;9.97;;;2.20;;
29200;SDS011;16244;51.956;12.980;2023-03-01T15:05:00;2.93;;;1.97;;
29200;SDS011;16244;51.956;12.980;2023-03-01T15:07:33;3.37;;;2.20;;
29200;SDS011;16244;51.956;12.980;2023-03-01T15:10:04;2.70;;;2.43;;